createdAt,value
2019-01-30T00:00:55.063Z,37.33
2019-01-30T00:03:29.135Z,42.78
2019-01-30T00:06:13.453Z,32.05
2019-01-30T00:08:56.520Z,37.83
2019-01-30T00:11:28.659Z,36.73
2019-01-30T00:14:09.494Z,39.85
2019-01-30T00:16:41.590Z,38.98
2019-01-30T00:19:14.066Z,33.73
2019-01-30T00:21:46.128Z,37.63
2019-01-30T00:24:18.128Z,39.87
2019-01-30T00:26:50.261Z,45.17
2019-01-30T00:29:23.278Z,34.90
2019-01-30T00:31:55.280Z,34.07
2019-01-30T00:34:27.244Z,35.87
2019-01-30T00:36:59.387Z,37.80
2019-01-30T00:39:31.348Z,40.92
2019-01-30T00:42:03.379Z,35.30
2019-01-30T00:44:38.129Z,39.58
2019-01-30T00:47:15.775Z,36.13
2019-01-30T00:49:47.029Z,38.60
2019-01-30T00:52:19.086Z,55.52
2019-01-30T00:54:51.389Z,42.08
2019-01-30T00:57:23.421Z,42.50
2019-01-30T00:59:55.453Z,36.80
2019-01-30T01:02:27.654Z,45.43
2019-01-30T01:04:59.755Z,44.88
2019-01-30T01:07:31.754Z,42.27
2019-01-30T01:10:06.164Z,39.37
2019-01-30T01:12:38.278Z,34.95
2019-01-30T01:15:12.583Z,41.23
2019-01-30T01:17:44.873Z,36.03
2019-01-30T01:20:17.138Z,43.87
2019-01-30T01:22:49.537Z,39.97
2019-01-30T01:25:21.537Z,42.80
2019-01-30T01:27:53.539Z,39.48
2019-01-30T01:30:27.336Z,34.90
2019-01-30T01:32:59.400Z,51.53
2019-01-30T01:35:33.687Z,41.95
2019-01-30T01:38:05.870Z,33.73
2019-01-30T01:40:37.923Z,36.75
2019-01-30T01:43:10.072Z,35.20
2019-01-30T01:45:42.092Z,40.58
2019-01-30T01:48:14.516Z,43.40
2019-01-30T01:50:47.048Z,41.13
2019-01-30T01:53:19.229Z,37.78
2019-01-30T01:55:51.319Z,39.18
2019-01-30T01:58:23.918Z,37.67
2019-01-30T02:00:56.028Z,38.80
2019-01-30T02:03:36.749Z,35.53
2019-01-30T02:06:09.439Z,42.23
2019-01-30T02:08:41.441Z,48.87
2019-01-30T02:11:14.039Z,45.28
2019-01-30T02:13:46.145Z,48.48
2019-01-30T02:16:18.717Z,45.90
2019-01-30T02:18:51.190Z,45.60
2019-01-30T02:21:24.389Z,62.00
2019-01-30T02:23:56.342Z,40.80
2019-01-30T02:26:28.426Z,41.80
2019-01-30T02:29:00.650Z,43.17
2019-01-30T02:31:32.702Z,41.63
2019-01-30T02:34:06.302Z,39.95
2019-01-30T02:36:56.474Z,34.88
2019-01-30T02:39:30.253Z,40.83
2019-01-30T02:42:02.347Z,31.23
2019-01-30T02:44:34.347Z,42.30
2019-01-30T02:47:08.367Z,34.67
2019-01-30T02:49:40.389Z,40.10
2019-01-30T02:52:12.486Z,40.25
2019-01-30T02:54:44.479Z,41.80
2019-01-30T02:57:16.442Z,41.53
2019-01-30T02:59:48.457Z,42.17
2019-01-30T03:02:23.706Z,44.27
2019-01-30T03:04:55.711Z,42.17
2019-01-30T03:07:28.190Z,41.18
2019-01-30T03:10:00.514Z,40.90
2019-01-30T03:12:32.472Z,42.20
2019-01-30T03:15:04.817Z,35.97
2019-01-30T03:17:36.884Z,36.83
2019-01-30T03:20:13.826Z,42.80
2019-01-30T03:22:45.786Z,32.60
2019-01-30T03:25:18.606Z,44.23
2019-01-30T03:27:50.780Z,38.20
2019-01-30T03:30:25.445Z,39.37
2019-01-30T03:32:57.520Z,36.70
2019-01-30T03:35:30.239Z,27.87
2019-01-30T03:38:05.412Z,31.30
2019-01-30T03:40:37.791Z,34.40
2019-01-30T03:43:10.301Z,36.88
2019-01-30T03:45:43.881Z,32.80
2019-01-30T03:48:17.049Z,38.80
2019-01-30T03:50:49.147Z,35.23
2019-01-30T03:53:21.147Z,36.23
2019-01-30T03:55:55.673Z,36.57
2019-01-30T03:58:27.758Z,36.93
2019-01-30T04:00:59.738Z,34.60
2019-01-30T04:03:31.744Z,32.70
2019-01-30T04:06:03.901Z,37.73
2019-01-30T04:08:35.904Z,35.63
2019-01-30T04:11:07.885Z,34.33
2019-01-30T04:13:41.537Z,30.73
2019-01-30T04:16:13.803Z,32.90
2019-01-30T04:18:45.804Z,42.80
2019-01-30T04:21:17.837Z,40.23
2019-01-30T04:23:49.842Z,35.47
2019-01-30T04:26:23.861Z,48.33
2019-01-30T04:28:55.937Z,44.58
2019-01-30T04:31:37.918Z,35.38
2019-01-30T04:34:02.512Z,39.00
2019-01-30T04:36:34.544Z,41.83
2019-01-30T04:39:09.036Z,37.63
2019-01-30T04:41:41.140Z,41.23
2019-01-30T04:44:14.976Z,45.07
2019-01-30T04:46:46.925Z,53.50
2019-01-30T04:49:19.040Z,40.00
2019-01-30T04:51:51.064Z,60.37
2019-01-30T04:54:23.061Z,55.53
2019-01-30T04:56:56.516Z,37.03
2019-01-30T04:59:28.502Z,40.43
2019-01-30T05:02:00.598Z,38.10
2019-01-30T05:04:32.594Z,38.17
2019-01-30T05:07:04.793Z,37.83
2019-01-30T05:09:36.795Z,30.63
2019-01-30T05:12:08.934Z,46.33
2019-01-30T05:14:40.978Z,38.47
2019-01-30T05:17:13.027Z,37.27
2019-01-30T05:19:45.022Z,38.20
2019-01-30T05:22:16.954Z,34.73
2019-01-30T05:24:48.984Z,28.77
2019-01-30T05:27:21.062Z,28.53
2019-01-30T05:29:53.040Z,33.57
2019-01-30T05:32:25.014Z,36.93
2019-01-30T05:34:56.998Z,34.20
2019-01-30T05:37:29.134Z,35.00
2019-01-30T05:40:01.160Z,30.83
2019-01-30T05:42:33.345Z,34.80
2019-01-30T05:45:06.159Z,31.40
2019-01-30T05:47:38.428Z,29.87
2019-01-30T05:50:10.732Z,29.17
2019-01-30T05:52:42.925Z,27.80
2019-01-30T05:55:15.645Z,28.30
2019-01-30T05:57:47.705Z,28.13
2019-01-30T06:00:27.980Z,32.60
2019-01-30T06:03:00.017Z,28.77
2019-01-30T06:05:32.217Z,28.27
2019-01-30T06:08:04.762Z,26.60
2019-01-30T06:10:36.961Z,32.10
2019-01-30T06:13:09.035Z,24.57
2019-01-30T06:15:41.205Z,24.90
2019-01-30T06:18:13.212Z,28.43
2019-01-30T06:20:45.254Z,26.50
2019-01-30T06:23:17.493Z,25.37
2019-01-30T06:25:49.458Z,26.60
2019-01-30T06:28:21.465Z,23.13
2019-01-30T06:30:53.553Z,27.47
2019-01-30T06:33:25.508Z,20.07
2019-01-30T06:36:00.079Z,19.90
2019-01-30T06:38:32.192Z,18.93
2019-01-30T06:41:04.368Z,26.53
2019-01-30T06:43:36.303Z,28.10
2019-01-30T06:46:08.305Z,21.73
2019-01-30T06:48:40.361Z,30.70
2019-01-30T06:51:12.494Z,26.27
2019-01-30T06:53:44.444Z,31.70
2019-01-30T06:56:17.506Z,20.87
2019-01-30T06:58:49.859Z,26.03
2019-01-30T07:01:21.850Z,29.77
2019-01-30T07:03:54.389Z,25.05
2019-01-30T07:06:26.578Z,23.33
2019-01-30T07:09:00.704Z,27.67
2019-01-30T07:11:32.754Z,27.53
2019-01-30T07:14:04.910Z,26.17
2019-01-30T07:16:37.010Z,30.97
2019-01-30T07:19:09.072Z,29.07
2019-01-30T07:21:41.334Z,23.00
2019-01-30T07:24:13.349Z,25.97
2019-01-30T07:26:45.355Z,28.30
2019-01-30T07:29:17.684Z,24.03
2019-01-30T07:31:49.770Z,26.33
2019-01-30T07:34:21.881Z,18.77
2019-01-30T07:36:55.675Z,25.63
2019-01-30T07:39:29.493Z,26.13
2019-01-30T07:42:01.513Z,23.90
2019-01-30T07:44:33.487Z,24.47
2019-01-30T07:47:05.565Z,26.43
2019-01-30T07:49:37.659Z,26.33
2019-01-30T07:52:09.795Z,25.63
2019-01-30T07:54:41.741Z,22.00
2019-01-30T07:57:13.748Z,19.83
2019-01-30T07:59:48.119Z,25.03
2019-01-30T08:02:21.893Z,23.20
2019-01-30T08:04:54.111Z,28.20
2019-01-30T08:07:27.683Z,27.23
2019-01-30T08:09:59.815Z,31.20
2019-01-30T08:12:32.538Z,26.23
2019-01-30T08:15:05.051Z,28.93
2019-01-30T08:17:40.045Z,29.67
2019-01-30T08:20:14.735Z,31.23
2019-01-30T08:22:47.020Z,29.83
2019-01-30T08:25:21.136Z,26.07
2019-01-30T08:27:55.577Z,27.97
2019-01-30T08:30:44.057Z,27.35
2019-01-30T08:33:27.265Z,37.53
2019-01-30T08:35:59.951Z,25.85
2019-01-30T08:38:32.077Z,26.33
2019-01-30T08:41:04.160Z,23.70
2019-01-30T08:43:38.303Z,23.42
2019-01-30T08:46:10.424Z,23.85
2019-01-30T08:48:42.456Z,26.55
2019-01-30T08:51:14.608Z,28.10
2019-01-30T08:53:46.589Z,34.93
2019-01-30T08:56:18.669Z,26.80
2019-01-30T08:58:50.698Z,33.47
2019-01-30T09:01:22.755Z,33.45
2019-01-30T09:03:54.775Z,31.57
2019-01-30T09:06:26.774Z,30.20
2019-01-30T09:09:00.125Z,27.52
2019-01-30T09:11:32.303Z,27.77
2019-01-30T09:14:04.350Z,31.50
2019-01-30T09:16:36.367Z,32.85
2019-01-30T09:19:08.295Z,31.52
2019-01-30T09:21:40.326Z,30.75
2019-01-30T09:24:13.074Z,25.62
2019-01-30T09:26:45.054Z,24.27
2019-01-30T09:29:17.077Z,30.35
2019-01-30T09:31:49.120Z,30.00
2019-01-30T09:34:21.661Z,27.20
2019-01-30T09:36:53.757Z,27.70
2019-01-30T09:39:25.805Z,35.45
2019-01-30T09:41:58.196Z,25.68
2019-01-30T09:44:30.213Z,31.50
2019-01-30T09:47:02.323Z,29.25
2019-01-30T09:49:34.381Z,33.83
2019-01-30T09:52:06.506Z,40.90
2019-01-30T09:54:38.894Z,41.68
2019-01-30T09:57:10.928Z,42.67
2019-01-30T09:59:43.011Z,38.55
2019-01-30T10:02:15.067Z,32.83
2019-01-30T10:04:47.101Z,29.30
2019-01-30T10:07:19.220Z,31.57
2019-01-30T10:09:53.994Z,28.23
2019-01-30T10:12:26.010Z,44.23
2019-01-30T10:15:01.499Z,36.60
2019-01-30T10:17:33.485Z,42.45
2019-01-30T10:20:06.339Z,37.55
2019-01-30T10:22:40.180Z,32.03
2019-01-30T10:25:12.550Z,34.13
2019-01-30T10:27:44.496Z,49.25
2019-01-30T10:30:19.657Z,74.37
2019-01-30T10:32:51.719Z,44.33
2019-01-30T10:35:24.126Z,39.73
2019-01-30T10:37:56.276Z,40.90
2019-01-30T10:40:28.540Z,33.45
2019-01-30T10:43:00.696Z,37.20
2019-01-30T10:45:32.783Z,34.65
2019-01-30T10:48:04.909Z,34.55
2019-01-30T10:50:37.149Z,55.12
2019-01-30T10:53:09.379Z,49.00
2019-01-30T10:55:41.538Z,35.30
2019-01-30T10:58:16.482Z,32.70
2019-01-30T11:00:50.788Z,35.52
2019-01-30T11:03:24.659Z,26.97
2019-01-30T11:05:56.767Z,30.90
2019-01-30T11:08:28.720Z,31.90
2019-01-30T11:11:07.516Z,45.10
2019-01-30T11:13:34.505Z,50.90
2019-01-30T11:16:06.750Z,33.38
2019-01-30T11:18:38.737Z,27.67
2019-01-30T11:21:10.797Z,21.82
2019-01-30T11:23:42.914Z,26.80
2019-01-30T11:26:14.956Z,23.07
2019-01-30T11:28:46.918Z,118.85
2019-01-30T11:31:19.013Z,87.55
2019-01-30T11:33:51.050Z,32.08
2019-01-30T11:36:23.030Z,71.70
2019-01-30T11:38:55.236Z,21.82
2019-01-30T11:41:27.329Z,18.00
2019-01-30T11:43:59.384Z,21.55
2019-01-30T11:46:31.392Z,37.98
2019-01-30T11:49:03.516Z,27.30
2019-01-30T11:51:35.604Z,16.60
2019-01-30T11:54:07.665Z,21.12
2019-01-30T11:56:39.992Z,84.28
2019-01-30T11:59:12.000Z,60.55
2019-01-30T12:01:43.964Z,16.17
2019-01-30T12:04:18.088Z,14.20
2019-01-30T12:06:49.838Z,14.98
2019-01-30T12:09:21.929Z,44.23
2019-01-30T12:11:53.928Z,42.35
2019-01-30T12:14:25.926Z,26.23
2019-01-30T12:16:57.869Z,15.65
2019-01-30T12:19:29.860Z,10.28
2019-01-30T12:22:01.952Z,13.35
2019-01-30T12:24:33.933Z,12.53
2019-01-30T12:27:06.099Z,20.92
2019-01-30T12:29:38.206Z,11.55
2019-01-30T12:32:12.458Z,10.15
2019-01-30T12:34:44.578Z,14.40
2019-01-30T12:37:16.589Z,11.63
2019-01-30T12:39:48.656Z,14.68
2019-01-30T12:42:20.892Z,11.97
2019-01-30T12:44:54.584Z,16.27
2019-01-30T12:47:26.563Z,14.47
2019-01-30T12:49:58.746Z,12.78
2019-01-30T12:52:30.907Z,12.07
2019-01-30T12:55:02.937Z,35.33
2019-01-30T12:57:35.067Z,19.98
2019-01-30T13:00:15.302Z,12.55
2019-01-30T13:02:47.416Z,19.02
2019-01-30T13:05:20.716Z,13.65
2019-01-30T13:07:52.717Z,14.45
2019-01-30T13:10:24.656Z,13.58
2019-01-30T13:12:56.696Z,18.23
2019-01-30T13:15:29.099Z,12.60
2019-01-30T13:18:01.262Z,12.03
2019-01-30T13:20:33.380Z,37.35
2019-01-30T13:23:05.937Z,11.68
2019-01-30T13:25:41.482Z,7.20
2019-01-30T13:28:13.525Z,10.50
2019-01-30T13:30:45.548Z,7.95
2019-01-30T13:33:17.687Z,5.05
2019-01-30T13:35:50.119Z,5.47
2019-01-30T13:38:22.275Z,9.63
2019-01-30T13:40:54.286Z,11.88
2019-01-30T13:43:26.274Z,5.15
2019-01-30T13:46:05.502Z,4.90
2019-01-30T13:48:33.697Z,7.03
2019-01-30T13:51:05.907Z,7.50
2019-01-30T13:53:37.849Z,10.38
2019-01-30T13:56:11.197Z,14.73
2019-01-30T13:58:43.459Z,53.08
2019-01-30T14:01:17.635Z,9.13
2019-01-30T14:03:49.659Z,4.00
2019-01-30T14:06:21.694Z,4.55
2019-01-30T14:08:53.825Z,6.17
2019-01-30T14:11:27.490Z,14.65
2019-01-30T14:13:59.623Z,56.65
2019-01-30T14:16:31.687Z,8.23
2019-01-30T14:19:03.687Z,6.25
2019-01-30T14:21:35.801Z,3.25
2019-01-30T14:24:08.883Z,4.15
2019-01-30T14:26:40.928Z,8.13
2019-01-30T14:29:14.067Z,10.63
2019-01-30T14:31:46.042Z,35.90
2019-01-30T14:34:20.419Z,18.73
2019-01-30T14:36:55.335Z,14.28
2019-01-30T14:39:27.357Z,5.92
2019-01-30T14:41:59.986Z,4.95
2019-01-30T14:44:31.926Z,3.22
2019-01-30T14:47:04.255Z,10.93
2019-01-30T14:49:36.221Z,9.68
2019-01-30T14:52:08.226Z,16.42
2019-01-30T14:54:40.255Z,43.63
2019-01-30T14:57:12.433Z,6.95
2019-01-30T14:59:44.351Z,4.83
2019-01-30T15:02:16.398Z,5.50
2019-01-30T15:04:48.817Z,6.40
2019-01-30T15:07:28.839Z,38.80
2019-01-30T15:09:55.662Z,65.15
2019-01-30T15:12:27.740Z,71.70
2019-01-30T15:15:01.028Z,49.63
2019-01-30T15:17:33.121Z,10.53
2019-01-30T15:20:07.704Z,4.42
2019-01-30T15:22:39.693Z,40.33
2019-01-30T15:25:12.884Z,21.75
2019-01-30T15:27:45.099Z,28.70
2019-01-30T15:30:30.760Z,77.60
2019-01-30T15:33:02.830Z,38.33
2019-01-30T15:35:34.820Z,8.58
2019-01-30T15:38:08.947Z,5.28
2019-01-30T15:40:41.534Z,6.62
2019-01-30T15:43:13.623Z,6.55
2019-01-30T15:45:45.589Z,33.15
2019-01-30T15:48:18.089Z,35.00
2019-01-30T15:50:52.523Z,13.80
2019-01-30T15:53:25.891Z,5.85
2019-01-30T15:55:59.203Z,6.65
2019-01-30T15:58:31.219Z,5.70
2019-01-30T16:01:24.012Z,11.18
2019-01-30T16:03:56.131Z,73.85
2019-01-30T16:06:28.224Z,41.70
2019-01-30T16:09:00.244Z,23.27
2019-01-30T16:11:33.862Z,24.80
2019-01-30T16:14:06.062Z,6.28
2019-01-30T16:16:38.113Z,21.27
2019-01-30T16:19:10.117Z,6.65
2019-01-30T16:21:42.104Z,6.70
2019-01-30T16:24:15.897Z,9.38
2019-01-30T16:26:47.892Z,59.93
2019-01-30T16:29:20.089Z,13.05
2019-01-30T16:31:52.197Z,7.17
2019-01-30T16:34:25.422Z,4.17
2019-01-30T16:36:57.416Z,2.37
2019-01-30T16:39:29.403Z,2.58
2019-01-30T16:42:01.378Z,7.55
2019-01-30T16:44:33.485Z,1.57
2019-01-30T16:47:05.582Z,6.03
2019-01-30T16:49:37.523Z,2.00
2019-01-30T16:52:09.516Z,3.55
2019-01-30T16:54:41.541Z,17.20
2019-01-30T16:57:13.525Z,5.53
2019-01-30T16:59:47.073Z,8.75
2019-01-30T17:02:19.175Z,6.28
2019-01-30T17:04:51.385Z,7.22
2019-01-30T17:07:23.398Z,3.72
2019-01-30T17:09:55.407Z,2.62
2019-01-30T17:12:27.377Z,17.25
2019-01-30T17:14:59.543Z,26.93
2019-01-30T17:17:31.631Z,68.07
2019-01-30T17:20:04.525Z,64.15
2019-01-30T17:22:36.529Z,4.15
2019-01-30T17:25:09.158Z,5.58
2019-01-30T17:27:42.812Z,19.00
2019-01-30T17:30:18.720Z,38.05
2019-01-30T17:32:50.729Z,11.28
2019-01-30T17:35:23.002Z,5.08
2019-01-30T17:37:55.114Z,39.30
2019-01-30T17:40:27.891Z,143.93
2019-01-30T17:43:01.531Z,28.83
2019-01-30T17:45:33.573Z,49.50
2019-01-30T17:48:06.832Z,8.75
2019-01-30T17:50:39.049Z,2.47
2019-01-30T17:53:11.007Z,2.17
2019-01-30T17:55:43.149Z,5.00
2019-01-30T17:58:15.284Z,3.67
2019-01-30T18:00:54.845Z,1.75
2019-01-30T18:03:27.803Z,3.40
2019-01-30T18:06:03.173Z,2.17
2019-01-30T18:08:35.254Z,2.15
2019-01-30T18:11:07.390Z,3.12
2019-01-30T18:13:39.374Z,2.92
2019-01-30T18:16:11.554Z,2.30
2019-01-30T18:18:43.654Z,3.02
2019-01-30T18:21:15.649Z,2.90
2019-01-30T18:23:47.632Z,3.12
2019-01-30T18:26:19.698Z,3.92
2019-01-30T18:28:51.924Z,2.10
2019-01-30T18:31:24.045Z,1.80
2019-01-30T18:33:55.974Z,3.05
2019-01-30T18:36:28.030Z,4.35
2019-01-30T18:39:00.063Z,4.53
2019-01-30T18:41:33.677Z,3.95
2019-01-30T18:44:07.454Z,2.92
2019-01-30T18:46:39.423Z,3.05
2019-01-30T18:49:11.623Z,2.22
2019-01-30T18:51:45.121Z,3.45
2019-01-30T18:54:17.083Z,2.72
2019-01-30T18:56:49.218Z,3.02
2019-01-30T18:59:21.217Z,2.05
2019-01-30T19:01:53.951Z,1.80
2019-01-30T19:04:25.891Z,2.15
2019-01-30T19:06:57.923Z,2.12
2019-01-30T19:09:29.930Z,4.15
2019-01-30T19:12:01.907Z,5.37
2019-01-30T19:14:33.929Z,1.65
2019-01-30T19:17:06.973Z,2.60
2019-01-30T19:19:39.508Z,3.10
2019-01-30T19:22:11.503Z,3.98
2019-01-30T19:24:43.995Z,3.52
2019-01-30T19:27:16.089Z,3.02
2019-01-30T19:29:48.084Z,3.20
2019-01-30T19:32:22.643Z,5.25
2019-01-30T19:34:54.628Z,2.92
2019-01-30T19:37:26.591Z,3.60
2019-01-30T19:40:01.990Z,4.10
2019-01-30T19:42:34.398Z,4.15
2019-01-30T19:45:08.758Z,3.25
2019-01-30T19:47:40.835Z,4.28
2019-01-30T19:50:18.291Z,1.92
2019-01-30T19:52:50.497Z,1.80
2019-01-30T19:55:22.784Z,2.90
2019-01-30T19:57:55.144Z,2.62
2019-01-30T20:00:36.341Z,2.70
2019-01-30T20:03:13.482Z,3.15
2019-01-30T20:05:45.811Z,2.92
2019-01-30T20:08:19.209Z,1.65
2019-01-30T20:10:51.319Z,2.72
2019-01-30T20:13:23.420Z,3.08
2019-01-30T20:15:55.419Z,4.17
2019-01-30T20:18:27.455Z,2.10
2019-01-30T20:21:19.667Z,3.70
2019-01-30T20:24:00.948Z,4.42
2019-01-30T20:26:41.446Z,4.95
2019-01-30T20:29:17.180Z,4.25
2019-01-30T20:31:53.277Z,4.37
2019-01-30T20:34:30.793Z,2.58
2019-01-30T20:37:07.903Z,3.45
2019-01-30T20:39:46.252Z,3.35
2019-01-30T20:42:36.734Z,1.90
2019-01-30T20:45:33.479Z,3.15
2019-01-30T20:48:51.663Z,6.67
2019-01-30T20:51:49.916Z,5.28
2019-01-30T20:54:40.585Z,6.37
2019-01-30T20:57:29.636Z,2.85
2019-01-30T21:00:16.781Z,2.45
2019-01-30T21:03:03.920Z,4.05
2019-01-30T21:05:53.681Z,3.05
2019-01-30T21:08:38.967Z,1.60
2019-01-30T21:11:30.542Z,2.77
2019-01-30T21:14:22.992Z,3.75
2019-01-30T21:17:06.703Z,2.80
2019-01-30T21:19:45.873Z,4.35
2019-01-30T21:22:51.732Z,2.17
2019-01-30T21:25:33.513Z,3.90
2019-01-30T21:28:11.637Z,3.50
2019-01-30T21:30:53.329Z,6.47
2019-01-30T21:34:30.286Z,5.50
2019-01-30T21:37:10.827Z,4.58
2019-01-30T21:40:02.998Z,8.30
2019-01-30T21:42:42.565Z,6.50
2019-01-30T21:45:28.230Z,10.03
2019-01-30T21:48:12.645Z,10.50
2019-01-30T21:50:52.977Z,6.42
2019-01-30T21:53:54.271Z,9.33
2019-01-30T21:56:44.434Z,11.88
2019-01-30T21:59:38.411Z,9.13
2019-01-30T22:02:19.210Z,9.45
2019-01-30T22:04:57.996Z,9.85
2019-01-30T22:07:33.050Z,7.17
2019-01-30T22:10:18.450Z,7.97
2019-01-30T22:12:51.468Z,7.90
2019-01-30T22:15:24.632Z,3.92
2019-01-30T22:17:58.126Z,2.70
2019-01-30T22:20:30.483Z,4.00
2019-01-30T22:23:03.494Z,3.58
2019-01-30T22:25:35.657Z,5.50
2019-01-30T22:28:07.980Z,6.28
2019-01-30T22:30:40.013Z,4.62
2019-01-30T22:33:12.105Z,4.33
2019-01-30T22:35:44.241Z,2.15
2019-01-30T22:38:16.216Z,0.90
2019-01-30T22:40:48.359Z,3.33
2019-01-30T22:43:20.357Z,4.45
2019-01-30T22:45:52.385Z,2.15
2019-01-30T22:48:25.302Z,2.02
2019-01-30T22:50:57.293Z,4.50
2019-01-30T22:53:31.741Z,12.95
2019-01-30T22:56:04.469Z,10.40
2019-01-30T22:58:36.512Z,10.70
2019-01-30T23:01:37.428Z,9.75
2019-01-30T23:04:41.794Z,12.55
2019-01-30T23:07:54.287Z,6.75
2019-01-30T23:10:58.028Z,7.53
2019-01-30T23:14:02.355Z,11.53
2019-01-30T23:17:03.385Z,10.65
2019-01-30T23:20:22.668Z,12.75
2019-01-30T23:23:25.682Z,13.58
2019-01-30T23:26:20.436Z,17.37
2019-01-30T23:29:45.205Z,16.25
2019-01-30T23:32:30.953Z,12.25
2019-01-30T23:35:32.300Z,10.95
2019-01-30T23:38:50.151Z,6.83
2019-01-30T23:41:58.652Z,13.83
2019-01-30T23:44:56.577Z,25.45
2019-01-30T23:47:49.980Z,20.02
2019-01-30T23:50:51.304Z,21.05
2019-01-30T23:53:54.862Z,26.85
2019-01-30T23:57:04.589Z,37.33
